sensor_id;sensor_type;location;lat;lon;timestamp;temperature;humidity
2100;DHT22;1055;48.854;9.302;2023-03-21T00:01:04;10.70;99.90
2100;DHT22;1055;48.854;9.302;2023-03-21T00:03:31;10.60;99.90
2100;DHT22;1055;48.854;9.302;2023-03-21T00:05:58;10.80;99.90
2100;DHT22;1055;48.854;9.302;2023-03-21T00:08:24;10.90;99.90
2100;DHT22;1055;48.854;9.302;2023-03-21T00:11:02;11.10;99.90
2100;DHT22;1055;48.854;9.302;2023-03-21T00:13:29;11.00;99.90
2100;DHT22;1055;48.854;9.302;2023-03-21T00:16:05;11.00;99.90
2100;DHT22;1055;48.854;9.302;2023-03-21T00:18:31;11.10;99.90
2100;DHT22;1055;48.854;9.302;2023-03-21T00:20:58;10.60;99.90
2100;DHT22;1055;48.854;9.302;2023-03-21T00:23:25;10.60;99.90
2100;DHT22;1055;48.854;9.302;2023-03-21T00:25:51;10.30;99.90
2100;DHT22;1055;48.854;9.302;2023-03-21T00:28:16;10.10;99.90
2100;DHT22;1055;48.854;9.302;2023-03-21T00:30:42;10.40;99.90
2100;DHT22;1055;48.854;9.302;2023-03-21T00:33:08;10.50;99.90
2100;DHT22;1055;48.854;9.302;2023-03-21T00:35:33;10.50;99.90
2100;DHT22;1055;48.854;9.302;2023-03-21T00:37:59;10.10;99.90
2100;DHT22;1055;48.854;9.302;2023-03-21T00:40:24;10.00;99.90
2100;DHT22;1055;48.854;9.302;2023-03-21T00:42:50;10.10;99.90
2100;DHT22;1055;48.854;9.302;2023-03-21T00:45:16;10.10;99.90
2100;DHT22;1055;48.854;9.302;2023-03-21T00:47:44;10.10;99.90
2100;DHT22;1055;48.854;9.302;2023-03-21T00:50:10;9.90;99.90
2100;DHT22;1055;48.854;9.302;2023-03-21T00:52:36;10.10;99.90
2100;DHT22;1055;48.854;9.302;2023-03-21T00:55:03;9.80;99.90
2100;DHT22;1055;48.854;9.302;2023-03-21T00:57:29;9.80;99.90
2100;DHT22;1055;48.854;9.302;2023-03-21T00:59:54;9.60;99.90
2100;DHT22;1055;48.854;9.302;2023-03-21T01:02:22;9.70;99.90
2100;DHT22;1055;48.854;9.302;2023-03-21T01:08:44;9.80;99.90
2100;DHT22;1055;48.854;9.302;2023-03-21T01:11:13;9.70;99.90
2100;DHT22;1055;48.854;9.302;2023-03-21T01:13:40;9.50;99.90
2100;DHT22;1055;48.854;9.302;2023-03-21T01:16:07;9.30;99.90
2100;DHT22;1055;48.854;9.302;2023-03-21T01:18:34;9.50;99.90
2100;DHT22;1055;48.854;9.302;2023-03-21T01:21:00;9.40;99.90
2100;DHT22;1055;48.854;9.302;2023-03-21T01:23:27;9.40;99.90
2100;DHT22;1055;48.854;9.302;2023-03-21T01:25:54;9.30;99.90
2100;DHT22;1055;48.854;9.302;2023-03-21T01:28:21;9.50;99.90
2100;DHT22;1055;48.854;9.302;2023-03-21T01:30:50;9.40;99.90
2100;DHT22;1055;48.854;9.302;2023-03-21T01:33:17;9.40;99.90
2100;DHT22;1055;48.854;9.302;2023-03-21T01:35:43;9.30;99.90
2100;DHT22;1055;48.854;9.302;2023-03-21T01:38:09;9.20;99.90
2100;DHT22;1055;48.854;9.302;2023-03-21T01:40:36;9.20;99.90
2100;DHT22;1055;48.854;9.302;2023-03-21T01:43:18;9.20;99.90
2100;DHT22;1055;48.854;9.302;2023-03-21T01:48:28;9.30;99.90
2100;DHT22;1055;48.854;9.302;2023-03-21T01:50:55;9.40;99.90
2100;DHT22;1055;48.854;9.302;2023-03-21T01:53:23;9.60;99.90
2100;DHT22;1055;48.854;9.302;2023-03-21T01:56:02;9.50;99.90
2100;DHT22;1055;48.854;9.302;2023-03-21T01:58:28;9.60;99.90
2100;DHT22;1055;48.854;9.302;2023-03-21T02:04:18;9.50;99.90
2100;DHT22;1055;48.854;9.302;2023-03-21T02:07:13;9.70;99.90
2100;DHT22;1055;48.854;9.302;2023-03-21T02:09:45;9.50;99.90
2100;DHT22;1055;48.854;9.302;2023-03-21T02:12:11;9.70;99.90
2100;DHT22;1055;48.854;9.302;2023-03-21T02:14:38;9.70;99.90
2100;DHT22;1055;48.854;9.302;2023-03-21T02:17:32;9.60;99.90
2100;DHT22;1055;48.854;9.302;2023-03-21T02:28:23;10.00;99.90
2100;DHT22;1055;48.854;9.302;2023-03-21T02:31:17;9.90;99.90
2100;DHT22;1055;48.854;9.302;2023-03-21T02:36:26;9.50;99.90
2100;DHT22;1055;48.854;9.302;2023-03-21T02:39:07;9.50;99.90
2100;DHT22;1055;48.854;9.302;2023-03-21T02:41:53;9.70;99.90
2100;DHT22;1055;48.854;9.302;2023-03-21T02:45:04;9.60;99.90
2100;DHT22;1055;48.854;9.302;2023-03-21T02:47:50;9.40;99.90
2100;DHT22;1055;48.854;9.302;2023-03-21T02:50:24;9.20;99.90
2100;DHT22;1055;48.854;9.302;2023-03-21T02:52:52;8.90;99.90
2100;DHT22;1055;48.854;9.302;2023-03-21T02:55:24;8.80;99.90
2100;DHT22;1055;48.854;9.302;2023-03-21T02:57:52;8.80;99.90
2100;DHT22;1055;48.854;9.302;2023-03-21T03:00:22;8.80;99.90
2100;DHT22;1055;48.854;9.302;2023-03-21T03:02:49;8.90;99.90
2100;DHT22;1055;48.854;9.302;2023-03-21T03:05:18;8.80;99.90
2100;DHT22;1055;48.854;9.302;2023-03-21T03:10:43;8.90;99.90
2100;DHT22;1055;48.854;9.302;2023-03-21T03:18:46;8.90;99.90
2100;DHT22;1055;48.854;9.302;2023-03-21T03:21:43;9.00;99.90
2100;DHT22;1055;48.854;9.302;2023-03-21T03:24:30;8.90;99.90
2100;DHT22;1055;48.854;9.302;2023-03-21T03:26:59;8.70;99.90
2100;DHT22;1055;48.854;9.302;2023-03-21T03:29:27;8.80;99.90
2100;DHT22;1055;48.854;9.302;2023-03-21T03:34:23;8.90;99.90
2100;DHT22;1055;48.854;9.302;2023-03-21T03:36:54;9.00;99.90
2100;DHT22;1055;48.854;9.302;2023-03-21T03:39:28;9.30;99.90
2100;DHT22;1055;48.854;9.302;2023-03-21T03:42:04;9.30;99.90
2100;DHT22;1055;48.854;9.302;2023-03-21T03:44:32;9.50;99.90
2100;DHT22;1055;48.854;9.302;2023-03-21T03:47:09;9.10;99.90
2100;DHT22;1055;48.854;9.302;2023-03-21T03:49:51;9.00;99.90
2100;DHT22;1055;48.854;9.302;2023-03-21T03:52:31;9.10;99.90
2100;DHT22;1055;48.854;9.302;2023-03-21T03:54:59;9.10;99.90
2100;DHT22;1055;48.854;9.302;2023-03-21T03:57:29;9.00;99.90
2100;DHT22;1055;48.854;9.302;2023-03-21T03:59:57;9.00;99.90
2100;DHT22;1055;48.854;9.302;2023-03-21T04:02:28;9.20;99.90
2100;DHT22;1055;48.854;9.302;2023-03-21T04:05:00;9.50;99.90
2100;DHT22;1055;48.854;9.302;2023-03-21T04:07:30;9.70;99.90
2100;DHT22;1055;48.854;9.302;2023-03-21T04:09:56;9.60;99.90
2100;DHT22;1055;48.854;9.302;2023-03-21T04:12:22;9.60;99.90
2100;DHT22;1055;48.854;9.302;2023-03-21T04:14:48;9.70;99.90
2100;DHT22;1055;48.854;9.302;2023-03-21T04:17:14;9.60;99.90
2100;DHT22;1055;48.854;9.302;2023-03-21T04:19:40;9.20;99.90
2100;DHT22;1055;48.854;9.302;2023-03-21T04:22:06;8.90;99.90
2100;DHT22;1055;48.854;9.302;2023-03-21T04:24:31;9.00;99.90
2100;DHT22;1055;48.854;9.302;2023-03-21T04:26:59;9.10;99.90
2100;DHT22;1055;48.854;9.302;2023-03-21T04:29:24;9.30;99.90
2100;DHT22;1055;48.854;9.302;2023-03-21T04:31:50;9.50;99.90
2100;DHT22;1055;48.854;9.302;2023-03-21T04:34:16;9.70;99.90
2100;DHT22;1055;48.854;9.302;2023-03-21T04:36:42;9.80;99.90
2100;DHT22;1055;48.854;9.302;2023-03-21T04:39:11;9.90;99.90
2100;DHT22;1055;48.854;9.302;2023-03-21T04:41:39;10.20;99.90
2100;DHT22;1055;48.854;9.302;2023-03-21T04:44:05;10.50;99.90
2100;DHT22;1055;48.854;9.302;2023-03-21T04:46:30;10.60;99.90
2100;DHT22;1055;48.854;9.302;2023-03-21T04:48:57;10.60;99.90
2100;DHT22;1055;48.854;9.302;2023-03-21T04:51:23;10.70;99.90
2100;DHT22;1055;48.854;9.302;2023-03-21T04:53:49;10.70;99.90
2100;DHT22;1055;48.854;9.302;2023-03-21T04:56:17;10.20;99.90
2100;DHT22;1055;48.854;9.302;2023-03-21T04:58:43;10.20;99.90
2100;DHT22;1055;48.854;9.302;2023-03-21T05:01:09;9.00;99.90
2100;DHT22;1055;48.854;9.302;2023-03-21T05:03:35;8.70;99.90
2100;DHT22;1055;48.854;9.302;2023-03-21T05:06:06;8.80;99.90
2100;DHT22;1055;48.854;9.302;2023-03-21T05:08:33;8.90;99.90
2100;DHT22;1055;48.854;9.302;2023-03-21T05:11:00;9.10;99.90
2100;DHT22;1055;48.854;9.302;2023-03-21T05:13:25;9.10;99.90
2100;DHT22;1055;48.854;9.302;2023-03-21T05:15:51;8.70;99.90
2100;DHT22;1055;48.854;9.302;2023-03-21T05:18:17;8.70;99.90
2100;DHT22;1055;48.854;9.302;2023-03-21T05:20:50;8.90;99.90
2100;DHT22;1055;48.854;9.302;2023-03-21T05:23:22;8.90;99.90
2100;DHT22;1055;48.854;9.302;2023-03-21T05:25:49;8.80;99.90
2100;DHT22;1055;48.854;9.302;2023-03-21T05:28:15;9.10;99.90
2100;DHT22;1055;48.854;9.302;2023-03-21T05:30:44;9.20;99.90
2100;DHT22;1055;48.854;9.302;2023-03-21T05:33:11;9.20;99.90
2100;DHT22;1055;48.854;9.302;2023-03-21T05:35:37;8.80;99.90
2100;DHT22;1055;48.854;9.302;2023-03-21T05:38:02;8.60;99.90
2100;DHT22;1055;48.854;9.302;2023-03-21T05:40:28;8.60;99.90
2100;DHT22;1055;48.854;9.302;2023-03-21T05:42:54;8.80;99.90
2100;DHT22;1055;48.854;9.302;2023-03-21T05:45:20;9.20;99.90
2100;DHT22;1055;48.854;9.302;2023-03-21T05:47:45;9.50;99.90
2100;DHT22;1055;48.854;9.302;2023-03-21T05:50:11;9.50;99.90
2100;DHT22;1055;48.854;9.302;2023-03-21T05:52:38;9.50;99.90
2100;DHT22;1055;48.854;9.302;2023-03-21T05:55:04;9.30;99.90
2100;DHT22;1055;48.854;9.302;2023-03-21T05:57:30;9.10;99.90
2100;DHT22;1055;48.854;9.302;2023-03-21T05:59:59;9.00;99.90
2100;DHT22;1055;48.854;9.302;2023-03-21T06:02:26;9.10;99.90
2100;DHT22;1055;48.854;9.302;2023-03-21T06:04:51;9.20;99.90
2100;DHT22;1055;48.854;9.302;2023-03-21T06:07:17;9.10;99.90
2100;DHT22;1055;48.854;9.302;2023-03-21T06:09:43;9.20;99.90
2100;DHT22;1055;48.854;9.302;2023-03-21T06:12:10;9.20;99.90
2100;DHT22;1055;48.854;9.302;2023-03-21T06:14:36;9.10;99.90
2100;DHT22;1055;48.854;9.302;2023-03-21T06:17:02;9.20;99.90
2100;DHT22;1055;48.854;9.302;2023-03-21T06:19:27;9.10;99.90
2100;DHT22;1055;48.854;9.302;2023-03-21T06:21:53;8.90;99.90
2100;DHT22;1055;48.854;9.302;2023-03-21T06:24:20;8.90;99.90
2100;DHT22;1055;48.854;9.302;2023-03-21T06:26:46;8.80;99.90
2100;DHT22;1055;48.854;9.302;2023-03-21T06:29:13;8.60;99.90
2100;DHT22;1055;48.854;9.302;2023-03-21T06:31:38;8.70;99.90
2100;DHT22;1055;48.854;9.302;2023-03-21T06:34:05;8.70;99.90
2100;DHT22;1055;48.854;9.302;2023-03-21T06:36:31;8.70;99.90
2100;DHT22;1055;48.854;9.302;2023-03-21T06:38:56;8.70;99.90
2100;DHT22;1055;48.854;9.302;2023-03-21T06:41:22;8.60;99.90
2100;DHT22;1055;48.854;9.302;2023-03-21T06:43:48;8.90;99.90
2100;DHT22;1055;48.854;9.302;2023-03-21T06:46:13;8.70;99.90
2100;DHT22;1055;48.854;9.302;2023-03-21T06:48:39;8.70;99.90
2100;DHT22;1055;48.854;9.302;2023-03-21T06:51:10;8.80;99.90
2100;DHT22;1055;48.854;9.302;2023-03-21T06:53:36;8.70;99.90
2100;DHT22;1055;48.854;9.302;2023-03-21T06:56:02;8.90;99.90
2100;DHT22;1055;48.854;9.302;2023-03-21T06:58:27;8.80;99.90
2100;DHT22;1055;48.854;9.302;2023-03-21T07:00:53;8.90;99.90
2100;DHT22;1055;48.854;9.302;2023-03-21T07:03:18;9.00;99.90
2100;DHT22;1055;48.854;9.302;2023-03-21T07:05:44;9.00;99.90
2100;DHT22;1055;48.854;9.302;2023-03-21T07:08:10;9.20;99.90
2100;DHT22;1055;48.854;9.302;2023-03-21T07:10:41;9.30;99.90
2100;DHT22;1055;48.854;9.302;2023-03-21T07:13:07;9.40;99.90
2100;DHT22;1055;48.854;9.302;2023-03-21T07:15:33;9.40;99.90
2100;DHT22;1055;48.854;9.302;2023-03-21T07:18:03;9.40;99.90
2100;DHT22;1055;48.854;9.302;2023-03-21T07:20:28;9.60;99.90
2100;DHT22;1055;48.854;9.302;2023-03-21T07:22:56;9.70;99.90
2100;DHT22;1055;48.854;9.302;2023-03-21T07:25:22;10.00;99.90
2100;DHT22;1055;48.854;9.302;2023-03-21T07:27:47;9.70;99.90
2100;DHT22;1055;48.854;9.302;2023-03-21T07:30:13;10.10;99.90
2100;DHT22;1055;48.854;9.302;2023-03-21T07:32:39;10.30;99.90
2100;DHT22;1055;48.854;9.302;2023-03-21T07:35:07;10.40;99.90
2100;DHT22;1055;48.854;9.302;2023-03-21T07:37:33;10.40;99.90
2100;DHT22;1055;48.854;9.302;2023-03-21T07:40:01;10.60;99.90
2100;DHT22;1055;48.854;9.302;2023-03-21T07:42:38;10.70;99.90
2100;DHT22;1055;48.854;9.302;2023-03-21T07:45:05;10.70;99.90
2100;DHT22;1055;48.854;9.302;2023-03-21T07:47:32;10.80;99.90
2100;DHT22;1055;48.854;9.302;2023-03-21T07:49:58;10.30;99.90
2100;DHT22;1055;48.854;9.302;2023-03-21T07:52:24;10.20;99.90
2100;DHT22;1055;48.854;9.302;2023-03-21T07:54:50;10.40;99.90
2100;DHT22;1055;48.854;9.302;2023-03-21T07:57:16;10.30;99.90
2100;DHT22;1055;48.854;9.302;2023-03-21T07:59:42;10.60;99.90
2100;DHT22;1055;48.854;9.302;2023-03-21T08:02:13;10.90;99.90
2100;DHT22;1055;48.854;9.302;2023-03-21T08:04:39;10.90;99.90
2100;DHT22;1055;48.854;9.302;2023-03-21T08:07:05;11.20;99.90
2100;DHT22;1055;48.854;9.302;2023-03-21T08:09:30;10.70;99.90
2100;DHT22;1055;48.854;9.302;2023-03-21T08:11:56;11.00;99.90
2100;DHT22;1055;48.854;9.302;2023-03-21T08:14:21;11.20;99.90
2100;DHT22;1055;48.854;9.302;2023-03-21T08:16:47;11.30;99.90
2100;DHT22;1055;48.854;9.302;2023-03-21T08:19:13;11.40;99.90
2100;DHT22;1055;48.854;9.302;2023-03-21T08:21:38;11.40;99.90
2100;DHT22;1055;48.854;9.302;2023-03-21T08:24:04;11.60;99.90
2100;DHT22;1055;48.854;9.302;2023-03-21T08:26:31;11.70;99.90
2100;DHT22;1055;48.854;9.302;2023-03-21T08:28:57;11.70;99.90
2100;DHT22;1055;48.854;9.302;2023-03-21T08:31:23;11.80;99.90
2100;DHT22;1055;48.854;9.302;2023-03-21T08:33:49;11.90;99.90
2100;DHT22;1055;48.854;9.302;2023-03-21T08:36:18;11.80;99.90
2100;DHT22;1055;48.854;9.302;2023-03-21T08:38:44;11.70;99.90
2100;DHT22;1055;48.854;9.302;2023-03-21T08:41:12;12.00;99.90
2100;DHT22;1055;48.854;9.302;2023-03-21T08:43:37;12.30;99.90
2100;DHT22;1055;48.854;9.302;2023-03-21T08:46:03;12.10;99.90
2100;DHT22;1055;48.854;9.302;2023-03-21T08:48:29;12.10;99.90
2100;DHT22;1055;48.854;9.302;2023-03-21T08:50:54;12.50;99.90
2100;DHT22;1055;48.854;9.302;2023-03-21T08:53:20;12.60;99.90
2100;DHT22;1055;48.854;9.302;2023-03-21T08:55:47;12.30;99.90
2100;DHT22;1055;48.854;9.302;2023-03-21T08:58:13;12.50;99.90
2100;DHT22;1055;48.854;9.302;2023-03-21T09:00:42;12.60;99.90
2100;DHT22;1055;48.854;9.302;2023-03-21T09:03:07;12.70;99.90
2100;DHT22;1055;48.854;9.302;2023-03-21T09:05:33;12.70;99.90
2100;DHT22;1055;48.854;9.302;2023-03-21T09:08:01;12.60;99.90
2100;DHT22;1055;48.854;9.302;2023-03-21T09:10:28;12.70;99.90
2100;DHT22;1055;48.854;9.302;2023-03-21T09:12:54;12.80;99.90
2100;DHT22;1055;48.854;9.302;2023-03-21T09:15:22;12.80;99.90
2100;DHT22;1055;48.854;9.302;2023-03-21T09:17:48;12.90;99.90
2100;DHT22;1055;48.854;9.302;2023-03-21T09:20:18;12.90;99.90
2100;DHT22;1055;48.854;9.302;2023-03-21T09:22:46;13.00;99.90
2100;DHT22;1055;48.854;9.302;2023-03-21T09:25:13;12.90;99.90
2100;DHT22;1055;48.854;9.302;2023-03-21T09:27:40;13.10;99.90
2100;DHT22;1055;48.854;9.302;2023-03-21T09:30:07;13.30;99.90
2100;DHT22;1055;48.854;9.302;2023-03-21T09:32:34;13.40;99.90
2100;DHT22;1055;48.854;9.302;2023-03-21T09:35:01;13.20;99.90
2100;DHT22;1055;48.854;9.302;2023-03-21T09:37:26;13.30;99.90
2100;DHT22;1055;48.854;9.302;2023-03-21T09:39:53;13.30;99.90
2100;DHT22;1055;48.854;9.302;2023-03-21T09:42:36;13.40;99.90
2100;DHT22;1055;48.854;9.302;2023-03-21T09:47:38;13.40;99.90
2100;DHT22;1055;48.854;9.302;2023-03-21T09:50:36;13.30;99.90
2100;DHT22;1055;48.854;9.302;2023-03-21T09:53:08;13.40;99.90
2100;DHT22;1055;48.854;9.302;2023-03-21T09:55:37;13.40;99.90
2100;DHT22;1055;48.854;9.302;2023-03-21T10:00:38;13.60;99.90
2100;DHT22;1055;48.854;9.302;2023-03-21T10:03:19;13.80;99.90
2100;DHT22;1055;48.854;9.302;2023-03-21T10:05:48;13.80;99.90
2100;DHT22;1055;48.854;9.302;2023-03-21T10:08:21;13.90;99.90
2100;DHT22;1055;48.854;9.302;2023-03-21T10:10:50;13.90;99.90
2100;DHT22;1055;48.854;9.302;2023-03-21T10:13:28;13.90;99.90
2100;DHT22;1055;48.854;9.302;2023-03-21T10:16:00;14.00;99.90
2100;DHT22;1055;48.854;9.302;2023-03-21T10:18:29;14.10;99.90
2100;DHT22;1055;48.854;9.302;2023-03-21T10:20:55;14.10;99.90
2100;DHT22;1055;48.854;9.302;2023-03-21T10:23:25;14.00;99.90
2100;DHT22;1055;48.854;9.302;2023-03-21T10:25:55;14.30;99.90
2100;DHT22;1055;48.854;9.302;2023-03-21T10:28:34;14.30;99.90
2100;DHT22;1055;48.854;9.302;2023-03-21T10:31:05;14.70;99.90
2100;DHT22;1055;48.854;9.302;2023-03-21T10:33:43;15.00;99.90
2100;DHT22;1055;48.854;9.302;2023-03-21T10:36:15;15.30;99.90
2100;DHT22;1055;48.854;9.302;2023-03-21T10:39:03;15.60;99.90
2100;DHT22;1055;48.854;9.302;2023-03-21T10:41:30;15.70;99.90
2100;DHT22;1055;48.854;9.302;2023-03-21T10:44:14;15.90;99.90
2100;DHT22;1055;48.854;9.302;2023-03-21T10:46:52;15.80;99.80
2100;DHT22;1055;48.854;9.302;2023-03-21T10:49:18;16.00;99.90
2100;DHT22;1055;48.854;9.302;2023-03-21T10:51:48;16.10;99.90
2100;DHT22;1055;48.854;9.302;2023-03-21T10:54:18;15.80;99.80
2100;DHT22;1055;48.854;9.302;2023-03-21T10:56:54;16.00;99.90
2100;DHT22;1055;48.854;9.302;2023-03-21T10:59:21;15.90;99.50
2100;DHT22;1055;48.854;9.302;2023-03-21T11:01:49;16.00;98.30
2100;DHT22;1055;48.854;9.302;2023-03-21T11:04:19;16.20;97.40
2100;DHT22;1055;48.854;9.302;2023-03-21T11:06:57;16.10;97.90
2100;DHT22;1055;48.854;9.302;2023-03-21T11:09:41;16.20;97.80
2100;DHT22;1055;48.854;9.302;2023-03-21T11:12:37;15.70;97.10
2100;DHT22;1055;48.854;9.302;2023-03-21T11:15:37;15.80;97.80
2100;DHT22;1055;48.854;9.302;2023-03-21T11:18:18;15.90;98.10
2100;DHT22;1055;48.854;9.302;2023-03-21T11:21:05;15.90;96.30
2100;DHT22;1055;48.854;9.302;2023-03-21T11:23:34;15.90;97.20
2100;DHT22;1055;48.854;9.302;2023-03-21T11:26:01;16.20;96.50
2100;DHT22;1055;48.854;9.302;2023-03-21T11:28:35;16.30;95.80
2100;DHT22;1055;48.854;9.302;2023-03-21T11:31:02;16.60;96.60
2100;DHT22;1055;48.854;9.302;2023-03-21T11:33:40;16.40;95.00
2100;DHT22;1055;48.854;9.302;2023-03-21T11:38:46;16.00;94.70
2100;DHT22;1055;48.854;9.302;2023-03-21T11:41:22;16.00;95.30
2100;DHT22;1055;48.854;9.302;2023-03-21T11:43:52;15.90;97.10
2100;DHT22;1055;48.854;9.302;2023-03-21T11:46:26;15.90;96.60
2100;DHT22;1055;48.854;9.302;2023-03-21T11:48:54;16.10;95.90
2100;DHT22;1055;48.854;9.302;2023-03-21T11:57:11;16.30;95.80
2100;DHT22;1055;48.854;9.302;2023-03-21T12:03:03;16.50;95.00
2100;DHT22;1055;48.854;9.302;2023-03-21T12:05:38;16.60;94.90
2100;DHT22;1055;48.854;9.302;2023-03-21T12:25:23;16.70;94.80
2100;DHT22;1055;48.854;9.302;2023-03-21T12:36:35;16.90;95.30
2100;DHT22;1055;48.854;9.302;2023-03-21T12:44:51;16.80;94.70
2100;DHT22;1055;48.854;9.302;2023-03-21T12:47:26;16.80;94.80
2100;DHT22;1055;48.854;9.302;2023-03-21T12:52:41;16.90;94.80
2100;DHT22;1055;48.854;9.302;2023-03-21T12:55:28;17.00;94.90
2100;DHT22;1055;48.854;9.302;2023-03-21T12:58:10;16.90;94.30
2100;DHT22;1055;48.854;9.302;2023-03-21T13:00:46;17.00;94.10
2100;DHT22;1055;48.854;9.302;2023-03-21T13:08:37;17.40;93.70
2100;DHT22;1055;48.854;9.302;2023-03-21T13:11:05;17.20;93.20
2100;DHT22;1055;48.854;9.302;2023-03-21T13:14:04;17.30;93.60
2100;DHT22;1055;48.854;9.302;2023-03-21T13:19:35;17.50;92.40
2100;DHT22;1055;48.854;9.302;2023-03-21T13:27:40;17.10;94.40
2100;DHT22;1055;48.854;9.302;2023-03-21T13:30:25;17.50;93.50
2100;DHT22;1055;48.854;9.302;2023-03-21T13:33:03;17.60;93.30
2100;DHT22;1055;48.854;9.302;2023-03-21T13:35:37;17.70;92.70
2100;DHT22;1055;48.854;9.302;2023-03-21T13:38:18;17.70;92.40
2100;DHT22;1055;48.854;9.302;2023-03-21T13:40:49;17.90;92.70
2100;DHT22;1055;48.854;9.302;2023-03-21T13:43:34;17.60;92.30
2100;DHT22;1055;48.854;9.302;2023-03-21T13:51:44;17.80;92.40
2100;DHT22;1055;48.854;9.302;2023-03-21T13:59:12;17.10;91.10
2100;DHT22;1055;48.854;9.302;2023-03-21T14:04:40;17.30;91.10
2100;DHT22;1055;48.854;9.302;2023-03-21T14:07:18;17.20;91.20
2100;DHT22;1055;48.854;9.302;2023-03-21T14:09:48;17.10;91.60
2100;DHT22;1055;48.854;9.302;2023-03-21T14:12:17;16.20;92.60
2100;DHT22;1055;48.854;9.302;2023-03-21T14:14:47;16.50;93.70
2100;DHT22;1055;48.854;9.302;2023-03-21T14:17:26;16.10;93.70
2100;DHT22;1055;48.854;9.302;2023-03-21T14:19:55;16.30;93.70
2100;DHT22;1055;48.854;9.302;2023-03-21T14:22:22;16.40;93.90
2100;DHT22;1055;48.854;9.302;2023-03-21T14:24:58;16.60;94.10
2100;DHT22;1055;48.854;9.302;2023-03-21T14:27:28;16.50;93.10
2100;DHT22;1055;48.854;9.302;2023-03-21T14:29:55;16.60;93.00
2100;DHT22;1055;48.854;9.302;2023-03-21T14:32:24;16.70;92.90
2100;DHT22;1055;48.854;9.302;2023-03-21T14:34:50;16.80;92.70
2100;DHT22;1055;48.854;9.302;2023-03-21T14:37:32;16.80;93.00
2100;DHT22;1055;48.854;9.302;2023-03-21T14:40:01;16.90;94.10
2100;DHT22;1055;48.854;9.302;2023-03-21T14:42:31;17.00;92.90
2100;DHT22;1055;48.854;9.302;2023-03-21T14:44:57;16.80;92.80
2100;DHT22;1055;48.854;9.302;2023-03-21T14:47:29;17.00;92.80
2100;DHT22;1055;48.854;9.302;2023-03-21T14:49:57;16.40;91.90
2100;DHT22;1055;48.854;9.302;2023-03-21T14:52:25;16.60;92.80
2100;DHT22;1055;48.854;9.302;2023-03-21T14:54:52;16.80;92.00
2100;DHT22;1055;48.854;9.302;2023-03-21T14:57:22;16.80;91.60
2100;DHT22;1055;48.854;9.302;2023-03-21T14:59:51;16.50;92.70
2100;DHT22;1055;48.854;9.302;2023-03-21T15:02:44;16.80;93.20
2100;DHT22;1055;48.854;9.302;2023-03-21T15:05:24;16.50;92.00
2100;DHT22;1055;48.854;9.302;2023-03-21T15:08:15;16.50;92.50
2100;DHT22;1055;48.854;9.302;2023-03-21T15:10:56;16.20;92.80
2100;DHT22;1055;48.854;9.302;2023-03-21T15:13:30;16.20;92.70
2100;DHT22;1055;48.854;9.302;2023-03-21T15:15:59;16.20;94.00
2100;DHT22;1055;48.854;9.302;2023-03-21T15:18:31;16.50;93.90
2100;DHT22;1055;48.854;9.302;2023-03-21T15:21:02;16.70;92.70
2100;DHT22;1055;48.854;9.302;2023-03-21T15:23:33;16.80;92.80
2100;DHT22;1055;48.854;9.302;2023-03-21T15:26:04;16.80;92.60
2100;DHT22;1055;48.854;9.302;2023-03-21T15:28:31;16.60;92.70
2100;DHT22;1055;48.854;9.302;2023-03-21T15:30:58;16.70;92.70
2100;DHT22;1055;48.854;9.302;2023-03-21T15:33:24;16.90;93.00
2100;DHT22;1055;48.854;9.302;2023-03-21T15:35:52;16.90;93.60
2100;DHT22;1055;48.854;9.302;2023-03-21T15:43:46;16.80;95.00
2100;DHT22;1055;48.854;9.302;2023-03-21T15:46:17;16.80;95.50
2100;DHT22;1055;48.854;9.302;2023-03-21T15:49:10;16.60;96.40
2100;DHT22;1055;48.854;9.302;2023-03-21T15:51:50;16.30;96.70
2100;DHT22;1055;48.854;9.302;2023-03-21T15:54:21;16.30;97.40
2100;DHT22;1055;48.854;9.302;2023-03-21T15:56:52;15.90;97.90
2100;DHT22;1055;48.854;9.302;2023-03-21T15:59:20;15.80;98.40
2100;DHT22;1055;48.854;9.302;2023-03-21T16:01:48;15.80;98.80
2100;DHT22;1055;48.854;9.302;2023-03-21T16:04:15;15.80;99.40
2100;DHT22;1055;48.854;9.302;2023-03-21T16:06:57;15.90;99.50
2100;DHT22;1055;48.854;9.302;2023-03-21T16:09:24;15.60;99.80
2100;DHT22;1055;48.854;9.302;2023-03-21T16:14:15;15.50;99.90
2100;DHT22;1055;48.854;9.302;2023-03-21T16:16:43;15.60;99.90
2100;DHT22;1055;48.854;9.302;2023-03-21T16:19:08;15.50;99.90
2100;DHT22;1055;48.854;9.302;2023-03-21T16:21:34;15.70;99.90
2100;DHT22;1055;48.854;9.302;2023-03-21T16:24:03;15.70;99.90
2100;DHT22;1055;48.854;9.302;2023-03-21T16:26:30;15.40;99.90
2100;DHT22;1055;48.854;9.302;2023-03-21T16:28:57;15.40;99.90
2100;DHT22;1055;48.854;9.302;2023-03-21T16:31:25;15.30;99.90
2100;DHT22;1055;48.854;9.302;2023-03-21T16:33:51;15.40;99.90
2100;DHT22;1055;48.854;9.302;2023-03-21T16:36:18;15.30;99.90
2100;DHT22;1055;48.854;9.302;2023-03-21T16:38:45;15.40;99.90
2100;DHT22;1055;48.854;9.302;2023-03-21T16:41:12;15.40;99.90
2100;DHT22;1055;48.854;9.302;2023-03-21T16:43:39;15.20;99.90
2100;DHT22;1055;48.854;9.302;2023-03-21T16:46:25;15.00;99.90
2100;DHT22;1055;48.854;9.302;2023-03-21T16:48:54;15.00;99.90
2100;DHT22;1055;48.854;9.302;2023-03-21T16:51:22;15.00;99.90
2100;DHT22;1055;48.854;9.302;2023-03-21T16:53:54;14.90;99.90
2100;DHT22;1055;48.854;9.302;2023-03-21T16:56:26;15.00;99.90
2100;DHT22;1055;48.854;9.302;2023-03-21T16:58:56;15.10;99.90
2100;DHT22;1055;48.854;9.302;2023-03-21T17:01:23;15.30;99.90
2100;DHT22;1055;48.854;9.302;2023-03-21T17:03:50;15.30;99.90
2100;DHT22;1055;48.854;9.302;2023-03-21T17:06:19;15.40;99.90
2100;DHT22;1055;48.854;9.302;2023-03-21T17:08:45;15.50;99.90
2100;DHT22;1055;48.854;9.302;2023-03-21T17:11:16;15.50;99.90
2100;DHT22;1055;48.854;9.302;2023-03-21T17:13:48;15.60;99.90
2100;DHT22;1055;48.854;9.302;2023-03-21T17:16:16;15.70;99.90
2100;DHT22;1055;48.854;9.302;2023-03-21T17:18:43;15.70;99.90
2100;DHT22;1055;48.854;9.302;2023-03-21T17:21:14;15.80;99.90
2100;DHT22;1055;48.854;9.302;2023-03-21T17:23:41;15.80;99.90
2100;DHT22;1055;48.854;9.302;2023-03-21T17:26:07;15.80;99.90
2100;DHT22;1055;48.854;9.302;2023-03-21T17:28:37;15.80;99.90
2100;DHT22;1055;48.854;9.302;2023-03-21T17:31:03;15.90;99.90
2100;DHT22;1055;48.854;9.302;2023-03-21T17:33:29;15.90;99.90
2100;DHT22;1055;48.854;9.302;2023-03-21T17:35:55;15.90;99.90
2100;DHT22;1055;48.854;9.302;2023-03-21T17:38:21;15.90;99.90
2100;DHT22;1055;48.854;9.302;2023-03-21T17:40:47;15.90;99.90
2100;DHT22;1055;48.854;9.302;2023-03-21T17:43:17;15.90;99.90
2100;DHT22;1055;48.854;9.302;2023-03-21T17:45:43;15.90;99.90
2100;DHT22;1055;48.854;9.302;2023-03-21T17:48:09;15.90;99.90
2100;DHT22;1055;48.854;9.302;2023-03-21T17:50:35;15.90;99.90
2100;DHT22;1055;48.854;9.302;2023-03-21T17:53:05;15.80;99.90
2100;DHT22;1055;48.854;9.302;2023-03-21T17:55:32;15.80;99.90
2100;DHT22;1055;48.854;9.302;2023-03-21T17:57:59;15.80;99.90
2100;DHT22;1055;48.854;9.302;2023-03-21T18:00:27;15.80;99.90
2100;DHT22;1055;48.854;9.302;2023-03-21T18:02:55;15.80;99.90
2100;DHT22;1055;48.854;9.302;2023-03-21T18:05:22;15.80;99.90
2100;DHT22;1055;48.854;9.302;2023-03-21T18:07:50;15.80;99.90
2100;DHT22;1055;48.854;9.302;2023-03-21T18:10:22;15.90;99.90
2100;DHT22;1055;48.854;9.302;2023-03-21T18:12:50;15.90;99.90
2100;DHT22;1055;48.854;9.302;2023-03-21T18:15:25;15.90;99.90
2100;DHT22;1055;48.854;9.302;2023-03-21T18:17:51;15.80;99.90
2100;DHT22;1055;48.854;9.302;2023-03-21T18:20:20;15.80;99.90
2100;DHT22;1055;48.854;9.302;2023-03-21T18:22:48;15.90;99.90